Time;durP1;ratioP1;P1;durP2;ratioP2;P2;SDS_P1;SDS_P2;PMS_P1;PMS_P2;Temp;Humidity;BMP_temperature;BMP_pressure;BME280_temperature;BME280_humidity;BME280_pressure;Samples;Min_cycle;Max_cycle;Signal;HPM_P1;HPM_P2
2022/11/04 00:01:22;;;;;;;14.15;8.55;;;11.90;99.90;;;;;;5033684;28;20501;-49
2022/11/04 00:03:49;;;;;;;11.30;8.75;;;11.90;99.90;;;;;;5051276;28;20076;-48
2022/11/04 00:06:17;;;;;;;11.13;7.32;;;11.90;99.90;;;;;;5046337;28;20053;-47
2022/11/04 00:08:48;;;;;;;13.82;7.68;;;11.90;99.90;;;;;;5050107;28;20405;-49
2022/11/04 00:13:59;;;;;;;7.53;4.57;;;11.80;99.90;;;;;;5050764;28;20485;-44
2022/11/04 00:19:10;;;;;;;5.13;2.90;;;11.80;99.90;;;;;;5048637;28;20405;-49
2022/11/04 00:29:52;;;;;;;3.47;1.80;;;11.50;99.90;;;;;;5031443;28;20054;-50
2022/11/04 00:35:03;;;;;;;3.00;1.90;;;11.50;99.90;;;;;;5051841;28;20126;-51
2022/11/04 00:37:31;;;;;;;3.88;1.73;;;11.40;99.90;;;;;;5051693;28;20409;-51
2022/11/04 00:39:58;;;;;;;2.08;1.60;;;11.40;99.90;;;;;;5048416;28;20041;-49
2022/11/04 00:42:25;;;;;;;2.20;2.00;;;11.40;99.90;;;;;;5037158;28;20060;-51
2022/11/04 00:44:52;;;;;;;3.58;1.45;;;11.40;99.90;;;;;;5055083;28;20467;-53
2022/11/04 00:47:18;;;;;;;2.05;0.95;;;11.40;99.90;;;;;;5055927;28;20100;-51
2022/11/04 00:49:45;;;;;;;2.15;0.55;;;11.30;99.90;;;;;;5037090;28;20081;-53
2022/11/04 00:52:12;;;;;;;3.80;0.70;;;11.30;99.90;;;;;;5053514;28;20099;-49
2022/11/04 00:54:40;;;;;;;1.88;0.85;;;11.30;99.90;;;;;;5053828;28;20122;-53
2022/11/04 00:57:09;;;;;;;1.88;0.40;;;11.30;99.90;;;;;;5055382;28;20091;-50
2022/11/04 00:59:35;;;;;;;3.42;0.50;;;11.30;99.90;;;;;;5053338;28;20082;-51
2022/11/04 01:02:02;;;;;;;4.15;0.50;;;11.30;99.90;;;;;;5052774;28;20060;-50
2022/11/04 01:04:29;;;;;;;0.95;0.50;;;11.20;99.90;;;;;;5053908;28;20081;-45
2022/11/04 01:06:56;;;;;;;4.63;0.40;;;11.20;99.90;;;;;;5035359;28;20541;-49
2022/11/04 01:09:23;;;;;;;1.70;0.50;;;11.20;99.90;;;;;;5036462;28;20073;-49
2022/11/04 01:11:51;;;;;;;4.88;0.40;;;11.20;99.90;;;;;;5052439;28;20138;-52
2022/11/04 01:14:18;;;;;;;1.83;0.70;;;11.20;99.90;;;;;;5028772;28;20096;-54
2022/11/04 01:16:45;;;;;;;2.97;0.50;;;11.20;99.90;;;;;;5034624;28;20083;-50
2022/11/04 01:19:12;;;;;;;1.73;0.60;;;11.20;99.90;;;;;;5036790;28;20107;-48
2022/11/04 01:21:39;;;;;;;4.43;0.50;;;11.10;99.90;;;;;;5054452;28;20057;-50
2022/11/04 01:24:06;;;;;;;2.60;0.70;;;11.10;99.90;;;;;;5033334;28;20482;-52
2022/11/04 01:26:33;;;;;;;3.75;0.60;;;11.10;99.90;;;;;;5035150;28;20080;-50
2022/11/04 01:29:01;;;;;;;2.25;0.60;;;11.10;99.90;;;;;;5045045;28;20115;-46
2022/11/04 01:31:29;;;;;;;3.88;0.60;;;11.10;99.90;;;;;;5035973;28;20056;-48
2022/11/04 01:33:56;;;;;;;1.80;0.70;;;11.10;99.90;;;;;;5034486;28;20140;-51
2022/11/04 01:36:23;;;;;;;2.80;0.35;;;11.10;99.90;;;;;;5051136;28;20045;-49
2022/11/04 01:38:51;;;;;;;2.10;0.60;;;11.10;99.90;;;;;;5036391;28;20060;-53
2022/11/04 01:41:18;;;;;;;3.08;0.85;;;11.20;99.90;;;;;;5053092;28;20111;-51
2022/11/04 01:43:48;;;;;;;1.58;0.40;;;11.20;99.90;;;;;;5034973;28;20084;-49
2022/11/04 01:46:26;;;;;;;6.05;0.82;;;11.30;99.90;;;;;;5031213;28;20504;-52
2022/11/04 01:48:53;;;;;;;1.75;0.50;;;11.20;99.90;;;;;;5048639;28;20041;-49
2022/11/04 01:51:20;;;;;;;0.90;0.50;;;11.20;99.90;;;;;;5035185;28;20092;-50
2022/11/04 01:53:47;;;;;;;3.63;0.47;;;11.20;99.90;;;;;;5030288;28;20124;-48
2022/11/04 01:56:14;;;;;;;5.63;0.73;;;11.20;99.90;;;;;;5036045;28;20088;-49
2022/11/04 01:58:42;;;;;;;2.88;0.65;;;11.20;99.90;;;;;;5052669;28;20091;-48
2022/11/04 02:01:09;;;;;;;2.47;0.40;;;11.20;99.90;;;;;;5036016;28;20080;-51
2022/11/04 02:03:38;;;;;;;1.08;0.45;;;11.20;99.90;;;;;;5033123;28;20531;-49
2022/11/04 02:06:06;;;;;;;6.18;0.45;;;11.20;99.90;;;;;;5034664;28;20099;-53
2022/11/04 02:08:32;;;;;;;3.92;0.60;;;11.20;99.90;;;;;;5052358;28;20052;-51
2022/11/04 02:11:00;;;;;;;1.55;0.30;;;11.20;99.90;;;;;;5051160;28;20045;-51
2022/11/04 02:13:26;;;;;;;3.67;0.38;;;11.10;99.90;;;;;;5034420;28;20115;-61
2022/11/04 02:15:55;;;;;;;7.22;0.70;;;11.20;99.90;;;;;;5035362;28;20513;-58
2022/11/04 02:18:31;;;;;;;3.55;0.60;;;11.20;99.90;;;;;;5052293;28;20049;-59
2022/11/04 02:21:24;;;;;;;5.45;1.20;;;11.10;99.90;;;;;;5035003;28;20471;-59
2022/11/04 02:24:04;;;;;;;1.27;0.43;;;11.20;99.90;;;;;;5027906;28;20068;-56
2022/11/04 02:26:54;;;;;;;3.60;0.70;;;11.10;99.90;;;;;;5033828;28;20065;-62
2022/11/04 02:29:27;;;;;;;4.95;0.55;;;11.10;99.90;;;;;;5054376;28;20094;-60
2022/11/04 02:31:58;;;;;;;0.95;0.28;;;11.10;99.90;;;;;;5033406;28;20473;-57
2022/11/04 02:34:27;;;;;;;1.25;0.40;;;11.10;99.90;;;;;;5047823;28;20139;-52
2022/11/04 02:36:58;;;;;;;4.88;0.47;;;11.10;99.90;;;;;;5051612;28;20474;-53
2022/11/04 02:39:29;;;;;;;1.77;0.30;;;11.10;99.90;;;;;;5053030;28;20099;-52
2022/11/04 02:41:57;;;;;;;3.80;0.50;;;11.10;99.90;;;;;;5035066;28;20041;-52
2022/11/04 02:44:28;;;;;;;5.45;0.40;;;11.10;99.90;;;;;;5034336;28;20049;-53
2022/11/04 02:46:58;;;;;;;4.40;0.50;;;11.10;99.90;;;;;;5051176;28;20562;-51
2022/11/04 02:49:27;;;;;;;1.75;0.90;;;11.10;99.90;;;;;;5034029;28;20110;-52
2022/11/04 02:51:56;;;;;;;2.85;0.77;;;11.10;99.90;;;;;;5051793;28;20052;-54
2022/11/04 02:54:25;;;;;;;4.28;0.90;;;11.10;99.90;;;;;;5033007;28;20049;-52
2022/11/04 02:56:52;;;;;;;4.00;1.08;;;11.10;99.90;;;;;;5037154;28;20087;-52
2022/11/04 02:59:22;;;;;;;4.05;0.95;;;11.10;99.90;;;;;;5050723;28;20080;-56
2022/11/04 03:01:50;;;;;;;3.72;0.90;;;11.10;99.90;;;;;;5031140;28;20136;-57
2022/11/04 03:04:18;;;;;;;4.00;1.10;;;11.10;99.90;;;;;;5035632;28;20505;-51
2022/11/04 03:06:47;;;;;;;2.53;0.88;;;11.10;99.90;;;;;;5051997;28;20076;-51
2022/11/04 03:09:14;;;;;;;4.13;1.00;;;11.10;99.90;;;;;;5034172;28;20077;-49
2022/11/04 03:11:41;;;;;;;2.60;1.05;;;11.00;99.90;;;;;;5051013;28;20044;-49
2022/11/04 03:14:10;;;;;;;2.33;1.10;;;11.00;99.90;;;;;;5050774;28;20045;-54
2022/11/04 03:16:38;;;;;;;3.83;1.13;;;11.10;99.90;;;;;;5033731;28;20182;-50
2022/11/04 03:19:08;;;;;;;4.13;0.93;;;11.10;99.90;;;;;;5052278;28;20053;-52
2022/11/04 03:21:37;;;;;;;4.47;1.00;;;11.00;99.90;;;;;;5030536;28;20045;-52
2022/11/04 03:24:04;;;;;;;3.40;1.00;;;11.10;99.90;;;;;;5051229;28;20080;-52
2022/11/04 03:26:33;;;;;;;1.48;0.80;;;11.00;99.90;;;;;;5051216;28;20044;-56
2022/11/04 03:29:06;;;;;;;4.68;1.02;;;11.10;99.90;;;;;;5052479;28;20098;-59
2022/11/04 03:31:36;;;;;;;5.28;1.30;;;11.10;99.90;;;;;;5051216;28;20110;-56
2022/11/04 03:34:02;;;;;;;4.13;1.00;;;11.10;99.90;;;;;;5043345;28;20080;-56
2022/11/04 03:36:31;;;;;;;7.75;0.73;;;11.00;99.90;;;;;;5050164;28;20224;-57
2022/11/04 03:38:57;;;;;;;2.90;0.50;;;11.00;99.90;;;;;;5052697;28;20057;-58
2022/11/04 03:41:27;;;;;;;5.32;0.73;;;10.90;99.90;;;;;;5052122;28;20052;-55
2022/11/04 03:43:54;;;;;;;1.77;0.60;;;10.90;99.90;;;;;;5032922;28;20099;-55
2022/11/04 03:46:21;;;;;;;2.10;0.47;;;10.80;99.90;;;;;;5032708;28;20488;-52
2022/11/04 03:48:49;;;;;;;3.25;0.40;;;10.90;99.90;;;;;;5050235;28;20051;-58
2022/11/04 03:51:15;;;;;;;1.95;0.40;;;10.70;99.90;;;;;;5050958;28;20445;-56
2022/11/04 03:53:43;;;;;;;3.03;0.63;;;10.70;99.90;;;;;;5051079;28;20085;-51
2022/11/04 03:56:27;;;;;;;0.93;0.45;;;10.70;99.90;;;;;;5048646;28;20143;-58
2022/11/04 03:58:58;;;;;;;1.35;0.40;;;10.70;99.90;;;;;;5051692;28;20037;-58
2022/11/04 04:01:28;;;;;;;4.70;0.50;;;10.70;99.90;;;;;;5034286;28;20149;-51
2022/11/04 04:03:57;;;;;;;1.45;0.40;;;10.70;99.90;;;;;;5050438;28;20076;-46
2022/11/04 04:06:25;;;;;;;1.00;0.43;;;10.70;99.90;;;;;;5050998;28;20119;-48
2022/11/04 04:08:53;;;;;;;5.03;0.60;;;10.70;99.90;;;;;;5032806;28;20052;-51
2022/11/04 04:11:22;;;;;;;1.80;0.50;;;10.60;99.90;;;;;;5051648;28;20146;-50
2022/11/04 04:13:53;;;;;;;2.35;0.50;;;10.70;99.90;;;;;;5036463;28;20045;-50
2022/11/04 04:16:21;;;;;;;2.17;0.65;;;10.60;99.90;;;;;;5055131;28;20456;-50
2022/11/04 04:18:49;;;;;;;2.28;0.50;;;10.70;99.90;;;;;;5056312;28;20049;-51
2022/11/04 04:21:18;;;;;;;2.85;0.77;;;10.70;99.90;;;;;;5036440;28;20048;-47
2022/11/04 04:29:23;;;;;;;4.47;0.80;;;10.60;99.90;;;;;;5037985;28;20057;-57
2022/11/04 04:31:51;;;;;;;2.70;1.02;;;10.60;99.90;;;;;;5055061;28;20049;-46
2022/11/04 04:34:19;;;;;;;2.72;0.68;;;10.60;99.90;;;;;;5051897;28;20067;-57
2022/11/04 04:36:46;;;;;;;2.42;0.60;;;10.60;99.90;;;;;;5052525;28;20073;-57
2022/11/04 04:47:31;;;;;;;3.88;0.60;;;10.60;99.90;;;;;;5051450;28;20497;-51
2022/11/04 04:49:58;;;;;;;2.10;0.60;;;10.60;99.90;;;;;;5053408;28;20125;-52
2022/11/04 04:52:26;;;;;;;3.25;0.40;;;10.60;99.90;;;;;;5053215;28;20508;-49
2022/11/04 04:54:53;;;;;;;1.63;0.40;;;10.60;99.90;;;;;;5050111;28;20053;-48
2022/11/04 04:57:21;;;;;;;2.08;0.40;;;10.60;99.90;;;;;;5035176;28;20076;-49
2022/11/04 04:59:48;;;;;;;0.77;0.30;;;10.60;99.90;;;;;;5055707;28;20080;-49
2022/11/04 05:02:15;;;;;;;3.22;0.50;;;10.50;99.90;;;;;;5036262;28;20409;-51
2022/11/04 05:04:42;;;;;;;2.65;1.00;;;10.50;99.90;;;;;;5053809;28;20094;-51
2022/11/04 05:07:08;;;;;;;6.03;0.60;;;10.50;99.90;;;;;;5052422;28;20053;-46
2022/11/04 05:09:35;;;;;;;1.67;0.30;;;10.50;99.90;;;;;;5054730;28;20451;-45
2022/11/04 05:12:02;;;;;;;2.17;0.60;;;10.50;99.90;;;;;;5054892;28;20052;-45
2022/11/04 05:14:30;;;;;;;2.08;0.50;;;10.50;99.90;;;;;;5037459;28;20115;-47
2022/11/04 05:16:57;;;;;;;4.20;0.55;;;10.50;99.90;;;;;;5054984;28;20099;-46
2022/11/04 05:19:24;;;;;;;4.95;0.35;;;10.40;99.90;;;;;;5050648;28;20087;-47
2022/11/04 05:21:51;;;;;;;2.92;0.50;;;10.40;99.90;;;;;;5051197;28;20052;-47
2022/11/04 05:24:18;;;;;;;2.42;0.55;;;10.40;99.90;;;;;;5052368;28;20095;-46
2022/11/04 05:26:44;;;;;;;1.73;0.45;;;10.40;99.90;;;;;;5051207;28;20474;-46
2022/11/04 05:29:11;;;;;;;2.65;0.43;;;10.40;99.90;;;;;;5053332;28;20107;-48
2022/11/04 05:31:40;;;;;;;2.08;0.45;;;10.40;99.90;;;;;;5033001;28;20758;-47
2022/11/04 05:34:06;;;;;;;3.35;0.60;;;10.40;99.90;;;;;;5031149;28;20088;-43
2022/11/04 05:36:33;;;;;;;1.23;0.50;;;10.30;99.90;;;;;;5039363;28;20095;-45
2022/11/04 05:39:00;;;;;;;1.42;0.40;;;10.30;99.90;;;;;;5050336;28;20447;-48
2022/11/04 05:41:27;;;;;;;2.47;0.68;;;10.30;99.90;;;;;;5051596;28;20045;-46
2022/11/04 05:43:54;;;;;;;4.00;0.80;;;10.30;99.90;;;;;;5034482;28;20053;-46
2022/11/04 05:46:21;;;;;;;2.67;0.47;;;10.30;99.90;;;;;;5051802;28;20141;-47
2022/11/04 05:48:49;;;;;;;1.70;0.40;;;10.30;99.90;;;;;;5035853;28;20091;-49
2022/11/04 05:51:16;;;;;;;2.47;0.80;;;10.30;99.90;;;;;;5035004;28;20053;-47
2022/11/04 05:53:43;;;;;;;1.25;0.40;;;10.20;99.90;;;;;;5051338;28;20570;-43
2022/11/04 05:56:10;;;;;;;3.00;0.70;;;10.20;99.90;;;;;;5050931;28;20055;-45
2022/11/04 05:58:37;;;;;;;3.92;0.60;;;10.20;99.90;;;;;;5052752;28;20128;-47
2022/11/04 06:01:14;;;;;;;3.38;0.50;;;10.10;99.90;;;;;;5033419;28;20103;-44
2022/11/04 06:03:41;;;;;;;1.95;0.52;;;10.10;99.90;;;;;;5050503;28;20098;-45
2022/11/04 06:06:09;;;;;;;3.42;0.80;;;10.10;99.90;;;;;;5029689;28;20085;-43
2022/11/04 06:08:36;;;;;;;3.00;0.50;;;10.10;99.90;;;;;;5051393;28;20041;-45
2022/11/04 06:11:04;;;;;;;2.28;0.65;;;10.10;99.90;;;;;;5050481;28;20084;-42
2022/11/04 06:13:31;;;;;;;3.25;0.73;;;10.10;99.90;;;;;;5048023;28;20071;-44
2022/11/04 06:15:57;;;;;;;1.77;0.50;;;10.10;99.90;;;;;;5034198;28;20056;-41
2022/11/04 06:18:24;;;;;;;3.35;0.82;;;10.00;99.90;;;;;;5044077;28;20088;-47
2022/11/04 06:20:51;;;;;;;2.08;0.57;;;10.00;99.90;;;;;;5050520;28;20133;-43
2022/11/04 06:23:19;;;;;;;3.80;0.68;;;10.00;99.90;;;;;;5051163;28;20110;-43
2022/11/04 06:25:46;;;;;;;1.58;0.60;;;9.90;99.90;;;;;;5029031;28;20080;-43
2022/11/04 06:28:13;;;;;;;2.33;0.70;;;9.90;99.90;;;;;;5046849;28;20083;-44
2022/11/04 06:30:39;;;;;;;3.30;0.57;;;9.80;99.90;;;;;;5052413;28;20515;-44
2022/11/04 06:33:06;;;;;;;2.78;0.40;;;9.80;99.90;;;;;;5034281;28;20081;-47
2022/11/04 06:35:33;;;;;;;5.05;0.50;;;9.70;99.90;;;;;;5051613;28;20297;-43
2022/11/04 06:38:00;;;;;;;2.85;0.60;;;9.70;99.90;;;;;;5047588;28;20489;-41
2022/11/04 06:40:28;;;;;;;3.35;0.77;;;9.70;99.90;;;;;;5041343;28;20190;-42
2022/11/04 06:42:55;;;;;;;1.60;0.50;;;9.70;99.90;;;;;;5022972;28;20049;-44
2022/11/04 06:45:21;;;;;;;1.73;0.50;;;9.70;99.90;;;;;;5034775;28;20095;-43
2022/11/04 06:47:48;;;;;;;1.88;0.60;;;9.60;99.90;;;;;;5046051;28;20508;-43
2022/11/04 06:50:15;;;;;;;2.25;0.70;;;9.60;99.90;;;;;;4978673;22;20064;-45
2022/11/04 06:52:42;;;;;;;2.40;0.65;;;9.50;99.90;;;;;;4992866;28;20130;-45
2022/11/04 06:55:09;;;;;;;4.88;0.63;;;9.50;99.90;;;;;;4999773;28;20053;-42
2022/11/04 06:57:37;;;;;;;2.03;0.85;;;9.50;99.90;;;;;;5002563;28;20100;-43
2022/11/04 07:00:06;;;;;;;2.38;0.70;;;9.50;99.90;;;;;;4992095;28;20104;-42
2022/11/04 07:02:32;;;;;;;2.88;1.00;;;9.50;99.90;;;;;;4996663;28;20049;-45
2022/11/04 07:04:59;;;;;;;3.47;1.00;;;9.50;99.90;;;;;;4991142;28;20097;-41
2022/11/04 07:07:26;;;;;;;5.35;1.00;;;9.50;99.90;;;;;;4992334;28;20121;-44
2022/11/04 07:09:53;;;;;;;5.05;1.10;;;9.50;99.90;;;;;;4990779;28;20077;-41
2022/11/04 07:12:21;;;;;;;4.97;0.85;;;9.40;99.90;;;;;;5003782;28;20076;-42
2022/11/04 07:14:49;;;;;;;2.90;0.95;;;9.50;99.90;;;;;;5006683;28;20053;-43
2022/11/04 07:17:16;;;;;;;3.47;1.10;;;9.40;99.90;;;;;;4998441;28;20096;-43
2022/11/04 07:19:42;;;;;;;2.15;1.05;;;9.50;99.90;;;;;;5003167;28;20589;-42
2022/11/04 07:22:09;;;;;;;4.28;1.13;;;9.50;99.90;;;;;;4995546;28;20156;-44
2022/11/04 07:24:36;;;;;;;7.55;1.50;;;9.50;99.90;;;;;;5006761;28;20042;-43
2022/11/04 07:27:05;;;;;;;5.95;1.25;;;9.60;99.90;;;;;;5003341;28;20047;-41
2022/11/04 07:29:31;;;;;;;10.32;1.20;;;9.60;99.90;;;;;;5010497;28;20532;-41
2022/11/04 07:31:59;;;;;;;7.00;1.23;;;9.60;99.90;;;;;;4999774;28;20461;-41
2022/11/04 07:34:27;;;;;;;4.80;0.88;;;9.60;99.90;;;;;;4986903;28;20057;-41
2022/11/04 07:36:54;;;;;;;5.18;1.58;;;9.60;99.90;;;;;;5003248;28;20494;-41
2022/11/04 07:39:21;;;;;;;2.67;0.98;;;9.60;99.90;;;;;;4998673;28;20073;-42
2022/11/04 07:41:47;;;;;;;3.15;1.00;;;9.60;99.90;;;;;;4983642;28;20154;-41
2022/11/04 07:44:14;;;;;;;4.38;0.98;;;9.60;99.90;;;;;;5002715;28;20505;-43
2022/11/04 07:46:41;;;;;;;3.67;0.90;;;9.50;99.90;;;;;;4998125;28;20446;-42
2022/11/04 07:49:10;;;;;;;2.88;1.25;;;9.50;99.90;;;;;;5006981;28;20061;-41
2022/11/04 07:51:36;;;;;;;1.45;0.82;;;9.50;99.90;;;;;;5003646;28;20070;-41
2022/11/04 07:54:03;;;;;;;2.08;1.00;;;9.50;99.90;;;;;;5005219;28;20430;-41
2022/11/04 07:56:30;;;;;;;4.60;1.00;;;9.50;99.90;;;;;;4999693;28;20144;-41
2022/11/04 07:58:57;;;;;;;2.25;0.82;;;9.50;99.90;;;;;;4981102;28;20065;-42
2022/11/04 08:01:24;;;;;;;3.60;1.10;;;9.50;99.90;;;;;;5004748;28;20554;-43
2022/11/04 08:03:51;;;;;;;5.05;1.05;;;9.60;99.90;;;;;;5008505;28;20046;-42
2022/11/04 08:06:19;;;;;;;3.53;1.38;;;9.60;99.90;;;;;;4985460;28;20046;-43
2022/11/04 08:08:47;;;;;;;3.15;1.05;;;9.60;99.90;;;;;;5003682;28;20050;-42
2022/11/04 08:11:14;;;;;;;1.40;0.90;;;9.60;99.90;;;;;;5005816;28;20125;-41
2022/11/04 08:13:41;;;;;;;4.70;1.02;;;9.70;99.90;;;;;;5005428;28;20073;-42
2022/11/04 08:16:12;;;;;;;4.25;1.10;;;9.70;99.90;;;;;;5004145;28;20077;-41
2022/11/04 08:18:38;;;;;;;4.45;1.30;;;9.70;99.90;;;;;;5007532;28;20042;-40
2022/11/04 08:21:05;;;;;;;2.25;1.30;;;9.80;99.90;;;;;;4990513;28;20070;-42
2022/11/04 08:23:34;;;;;;;3.35;0.90;;;9.90;99.90;;;;;;4988617;28;20496;-41
2022/11/04 08:26:01;;;;;;;3.28;1.58;;;10.00;99.90;;;;;;4997031;28;20133;-41
2022/11/04 08:28:28;;;;;;;6.22;1.40;;;10.10;99.90;;;;;;4986894;28;20629;-42
2022/11/04 08:30:55;;;;;;;5.60;1.40;;;10.20;99.90;;;;;;5005791;28;20096;-41
2022/11/04 08:33:23;;;;;;;3.13;1.48;;;10.30;99.90;;;;;;4995178;28;20109;-41
2022/11/04 08:35:50;;;;;;;2.95;1.30;;;10.40;99.90;;;;;;4986212;28;20046;-41
2022/11/04 08:38:17;;;;;;;2.20;1.08;;;10.50;99.90;;;;;;4989970;28;20046;-41
2022/11/04 08:40:45;;;;;;;3.47;1.70;;;10.60;99.90;;;;;;4979952;28;20145;-42
2022/11/04 08:43:12;;;;;;;6.18;1.20;;;10.70;99.90;;;;;;4990378;28;20058;-40
2022/11/04 08:45:39;;;;;;;3.42;1.20;;;10.80;99.90;;;;;;4999339;28;20125;-40
2022/11/04 08:48:06;;;;;;;3.05;1.05;;;10.80;99.90;;;;;;5005222;28;20053;-41
2022/11/04 08:50:33;;;;;;;1.83;0.90;;;10.90;99.90;;;;;;4989618;28;20054;-41
2022/11/04 08:53:00;;;;;;;3.72;1.10;;;11.00;99.90;;;;;;5009099;28;20081;-43
2022/11/04 08:55:28;;;;;;;3.90;1.40;;;11.00;99.90;;;;;;4981378;28;20081;-40
2022/11/04 08:57:56;;;;;;;4.85;1.45;;;11.10;99.90;;;;;;4992502;28;20092;-41
2022/11/04 09:00:23;;;;;;;4.15;1.58;;;11.10;99.90;;;;;;5000097;28;20063;-40
2022/11/04 09:02:50;;;;;;;3.70;1.95;;;11.10;99.90;;;;;;5004536;28;20101;-40
2022/11/04 09:05:17;;;;;;;7.43;2.20;;;11.20;99.90;;;;;;5009268;28;20121;-41
2022/11/04 09:07:44;;;;;;;5.30;2.25;;;11.30;99.90;;;;;;5005422;28;20042;-40
2022/11/04 09:10:11;;;;;;;5.57;2.35;;;11.30;99.90;;;;;;4992369;28;20093;-40
2022/11/04 09:12:38;;;;;;;7.35;2.97;;;11.30;99.90;;;;;;4991284;28;20060;-39
2022/11/04 09:15:07;;;;;;;6.70;3.42;;;11.20;99.90;;;;;;4982324;28;20050;-40
2022/11/04 09:17:34;;;;;;;6.78;3.88;;;11.20;99.90;;;;;;5002821;28;20070;-41
2022/11/04 09:20:01;;;;;;;10.80;6.15;;;11.20;99.90;;;;;;5002135;28;20497;-40
2022/11/04 09:22:28;;;;;;;12.95;7.90;;;11.20;99.90;;;;;;5004937;28;20144;-40
2022/11/04 09:24:55;;;;;;;12.35;8.85;;;11.10;99.90;;;;;;5006161;28;20042;-41
2022/11/04 09:27:21;;;;;;;15.27;8.90;;;11.20;99.90;;;;;;4986194;28;20041;-40
2022/11/04 09:29:48;;;;;;;14.10;9.45;;;11.20;99.90;;;;;;4993217;28;20486;-40
2022/11/04 09:32:16;;;;;;;14.25;10.02;;;11.20;99.90;;;;;;5005028;28;20065;-40
2022/11/04 09:34:43;;;;;;;17.40;11.18;;;11.20;99.90;;;;;;4983806;28;20073;-40
2022/11/04 09:37:10;;;;;;;16.23;11.13;;;11.20;99.90;;;;;;4992222;28;20054;-39
2022/11/04 09:39:37;;;;;;;14.15;10.38;;;11.20;99.90;;;;;;5005203;28;20088;-40
2022/11/04 09:42:14;;;;;;;14.38;9.07;;;11.20;99.90;;;;;;4987241;28;20449;-40
2022/11/04 09:44:47;;;;;;;13.70;10.32;;;11.30;99.90;;;;;;5002337;28;20101;-40
2022/11/04 09:47:15;;;;;;;17.08;9.95;;;11.30;99.90;;;;;;4979964;28;20576;-40
2022/11/04 09:49:43;;;;;;;16.27;10.13;;;11.30;99.90;;;;;;4996739;28;20141;-41
2022/11/04 09:52:15;;;;;;;15.10;9.52;;;11.30;99.90;;;;;;4988621;28;20077;-40
2022/11/04 09:54:44;;;;;;;14.30;9.75;;;11.30;99.90;;;;;;5001132;28;20054;-40
2022/11/04 09:57:15;;;;;;;16.20;9.88;;;11.20;99.90;;;;;;5000256;28;20078;-39
2022/11/04 09:59:42;;;;;;;13.88;9.05;;;11.20;99.90;;;;;;5006202;28;20167;-40
2022/11/04 10:02:41;;;;;;;16.08;8.88;;;11.10;99.90;;;;;;4995801;28;20073;-40
2022/11/04 10:05:17;;;;;;;38.92;11.82;;;11.10;99.90;;;;;;4988899;28;20530;-39
2022/11/04 10:07:52;;;;;;;39.92;11.63;;;11.20;99.90;;;;;;5003474;28;20125;-40
2022/11/04 10:10:23;;;;;;;21.85;11.00;;;11.20;99.90;;;;;;4988830;28;20474;-39
2022/11/04 10:13:00;;;;;;;55.97;14.50;;;11.20;99.90;;;;;;5005361;28;20050;-41
2022/11/04 10:15:41;;;;;;;25.17;9.90;;;11.30;99.90;;;;;;5003542;28;20046;-40
2022/11/04 10:18:20;;;;;;;19.20;9.57;;;11.40;99.90;;;;;;4989378;28;20077;-39
2022/11/04 10:20:52;;;;;;;14.93;11.00;;;11.50;99.90;;;;;;5007763;28;20089;-39
2022/11/04 10:23:21;;;;;;;16.52;10.38;;;11.60;99.90;;;;;;5005122;28;20132;-40
2022/11/04 10:25:49;;;;;;;14.93;9.27;;;11.60;99.90;;;;;;4991631;28;20534;-39
2022/11/04 10:28:18;;;;;;;16.42;10.35;;;11.60;99.90;;;;;;5002577;28;20073;-40
2022/11/04 10:30:46;;;;;;;15.90;9.95;;;11.60;99.90;;;;;;5006742;28;20494;-39
2022/11/04 10:33:18;;;;;;;14.93;9.35;;;11.60;99.90;;;;;;5007182;28;20108;-39
2022/11/04 10:35:45;;;;;;;;;;;11.60;99.90;;;;;;5005522;28;20049;-39
2022/11/04 10:38:17;;;;;;;19.60;10.57;;;11.70;99.90;;;;;;4986483;28;19972;-40
2022/11/04 10:40:46;;;;;;;16.17;10.20;;;11.80;99.90;;;;;;5008448;28;20077;-39
2022/11/04 10:43:15;;;;;;;15.73;10.85;;;12.00;99.90;;;;;;5002112;28;20128;-40
2022/11/04 10:45:46;;;;;;;17.33;10.95;;;12.10;99.90;;;;;;5007931;28;20096;-39
2022/11/04 10:48:16;;;;;;;17.48;10.40;;;12.30;99.90;;;;;;4993558;28;20112;-39
2022/11/04 10:50:45;;;;;;;18.35;9.77;;;12.50;99.90;;;;;;4986163;28;20054;-39
2022/11/04 10:53:13;;;;;;;15.65;9.48;;;12.70;99.90;;;;;;4976276;28;20050;-40
2022/11/04 10:55:43;;;;;;;14.90;9.35;;;12.80;99.90;;;;;;4999348;28;20054;-39
2022/11/04 10:58:14;;;;;;;13.77;8.45;;;12.80;99.90;;;;;;4983210;28;20486;-41
2022/11/04 11:00:41;;;;;;;14.82;7.38;;;12.90;99.90;;;;;;4994640;28;20145;-40
2022/11/04 11:03:27;;;;;;;12.05;7.80;;;12.90;99.90;;;;;;4980260;28;20090;-40
2022/11/04 11:05:53;;;;;;;12.27;8.50;;;12.90;99.90;;;;;;4996961;28;20073;-39
2022/11/04 11:08:31;;;;;;;13.65;8.60;;;13.00;99.90;;;;;;5008561;28;20064;-39
2022/11/04 11:10:58;;;;;;;13.93;8.73;;;13.10;99.90;;;;;;4992388;28;20488;-38
2022/11/04 11:13:25;;;;;;;11.55;6.50;;;13.20;99.90;;;;;;4991988;28;20100;-38
2022/11/04 11:16:10;;;;;;;11.95;6.32;;;13.30;99.90;;;;;;4973853;28;20054;-40
2022/11/04 11:18:38;;;;;;;15.88;7.78;;;13.30;99.90;;;;;;4975590;28;20508;-39
2022/11/04 11:21:08;;;;;;;12.55;8.13;;;13.30;99.90;;;;;;4990113;28;20073;-39
2022/11/04 11:23:37;;;;;;;9.32;6.68;;;13.40;99.90;;;;;;4974115;28;20442;-42
2022/11/04 11:26:04;;;;;;;10.93;6.20;;;13.50;99.90;;;;;;4995745;28;20475;-39
2022/11/04 11:28:36;;;;;;;10.85;5.90;;;13.70;99.90;;;;;;4976663;28;20125;-40
2022/11/04 11:31:07;;;;;;;12.85;5.70;;;13.80;99.90;;;;;;4992684;28;20391;-39
2022/11/04 11:33:34;;;;;;;10.25;5.47;;;13.90;99.90;;;;;;4992067;28;20053;-38
2022/11/04 11:36:05;;;;;;;10.95;5.47;;;14.00;99.90;;;;;;4971973;28;20082;-38
2022/11/04 11:38:33;;;;;;;8.45;4.15;;;14.10;99.90;;;;;;4988142;28;20050;-39
2022/11/04 11:41:05;;;;;;;9.75;3.75;;;14.10;99.90;;;;;;4988776;28;20452;-39
2022/11/04 11:43:33;;;;;;;10.30;4.20;;;14.20;99.90;;;;;;4988329;28;20050;-41
2022/11/04 11:46:00;;;;;;;10.77;4.85;;;14.20;99.90;;;;;;4984624;28;20054;-39
2022/11/04 11:48:29;;;;;;;11.10;5.78;;;14.30;99.90;;;;;;4984349;28;20046;-40
2022/11/04 11:50:57;;;;;;;10.77;5.43;;;14.40;99.90;;;;;;5004475;28;20064;-39
2022/11/04 11:53:28;;;;;;;11.35;4.07;;;14.50;99.90;;;;;;4991598;28;20100;-39
2022/11/04 11:55:59;;;;;;;7.95;3.85;;;14.60;99.90;;;;;;4989139;28;20057;-39
2022/11/04 11:58:28;;;;;;;;;;;14.60;99.90;;;;;;5004045;28;20594;-38
2022/11/04 12:00:57;;;;;;;8.65;3.03;;;14.50;99.90;;;;;;5005399;28;19968;-40
2022/11/04 12:03:30;;;;;;;10.30;3.50;;;14.50;99.90;;;;;;4982799;28;20135;-39
2022/11/04 12:06:02;;;;;;;10.05;3.00;;;14.70;99.90;;;;;;4985111;28;20046;-38
2022/11/04 12:08:43;;;;;;;7.65;3.00;;;14.70;99.90;;;;;;5002355;28;20054;-39
2022/11/04 12:11:13;;;;;;;7.88;2.97;;;14.80;99.90;;;;;;4988408;28;20125;-40
2022/11/04 12:13:41;;;;;;;6.97;2.65;;;14.90;99.90;;;;;;5005463;28;20498;-39
2022/11/04 12:16:15;;;;;;;4.15;1.23;;;14.90;99.90;;;;;;5009099;28;20092;-39
2022/11/04 12:19:04;;;;;;;3.83;0.90;;;14.90;99.90;;;;;;4981541;28;20524;-39
2022/11/04 12:21:33;;;;;;;3.88;0.65;;;14.70;99.90;;;;;;4980947;28;20058;-39
2022/11/04 12:24:04;;;;;;;4.50;1.23;;;14.40;99.90;;;;;;5000893;28;20061;-39
2022/11/04 12:26:36;;;;;;;3.80;1.20;;;14.20;99.90;;;;;;4989852;28;20073;-39
2022/11/04 12:29:18;;;;;;;3.55;1.25;;;14.10;99.90;;;;;;4986648;28;20046;-40
2022/11/04 12:31:49;;;;;;;4.28;1.42;;;14.00;99.90;;;;;;4998395;28;20046;-38
2022/11/04 12:34:22;;;;;;;3.50;1.02;;;13.90;99.90;;;;;;4993539;28;20189;-41
2022/11/04 12:36:58;;;;;;;5.57;1.00;;;13.80;99.90;;;;;;5010904;28;20537;-44
2022/11/04 12:39:33;;;;;;;9.63;1.45;;;13.50;99.90;;;;;;4993150;28;20109;-44
2022/11/04 12:42:06;;;;;;;6.03;1.20;;;13.20;99.90;;;;;;5008487;28;20082;-47
2022/11/04 12:44:33;;;;;;;3.83;1.25;;;12.80;99.90;;;;;;4992094;28;20105;-47
2022/11/04 12:47:08;;;;;;;4.85;0.95;;;12.60;99.90;;;;;;5014680;28;20125;-50
2022/11/04 12:49:51;;;;;;;4.30;1.00;;;12.40;99.90;;;;;;5014856;28;20058;-44
2022/11/04 12:52:26;;;;;;;4.18;1.10;;;12.40;99.90;;;;;;4997350;28;20104;-48
2022/11/04 12:55:00;;;;;;;4.50;1.00;;;12.30;99.90;;;;;;5006721;28;20058;-46
2022/11/04 12:57:31;;;;;;;4.60;1.00;;;12.30;99.90;;;;;;5007561;28;20097;-44
2022/11/04 13:00:03;;;;;;;5.93;2.20;;;12.30;99.90;;;;;;5010922;28;20057;-40
2022/11/04 13:02:31;;;;;;;10.55;1.95;;;12.30;99.90;;;;;;5006182;28;20057;-39
2022/11/04 13:05:00;;;;;;;6.85;1.55;;;12.30;99.90;;;;;;4986709;28;20485;-38
2022/11/04 13:07:30;;;;;;;3.40;0.88;;;12.20;99.90;;;;;;5006890;28;20132;-37
2022/11/04 13:09:59;;;;;;;2.85;0.98;;;12.20;99.90;;;;;;4986937;28;20145;-38
2022/11/04 13:12:27;;;;;;;3.55;1.00;;;12.10;99.90;;;;;;4990926;28;20534;-38
2022/11/04 13:14:55;;;;;;;4.90;1.40;;;12.20;99.90;;;;;;5007971;28;20125;-39
2022/11/04 13:17:25;;;;;;;4.38;1.25;;;12.20;99.90;;;;;;5008419;28;20096;-40
2022/11/04 13:19:53;;;;;;;5.93;1.13;;;12.20;99.90;;;;;;5005775;28;20514;-42
2022/11/04 13:22:22;;;;;;;2.78;0.93;;;12.20;99.90;;;;;;5003519;28;20062;-42
2022/11/04 13:24:50;;;;;;;4.18;0.82;;;12.30;99.90;;;;;;5007168;28;20069;-45